createdAt,value
2019-01-26T00:00:50.451Z,99249.38
2019-01-26T00:03:19.050Z,99253.87
2019-01-26T00:05:47.664Z,99250.34
2019-01-26T00:08:16.277Z,99245.36
2019-01-26T00:10:44.891Z,99241.33
2019-01-26T00:13:13.475Z,99233.28
2019-01-26T00:15:42.136Z,99234.23
2019-01-26T00:18:10.886Z,99235.66
2019-01-26T00:20:39.664Z,99239.67
2019-01-26T00:23:07.479Z,99238.05
2019-01-26T00:25:36.000Z,99234.98
2019-01-26T00:28:04.600Z,99232.90
2019-01-26T00:30:33.237Z,99232.90
2019-01-26T00:33:01.823Z,99232.41
2019-01-26T00:35:30.741Z,99232.90
2019-01-26T00:37:59.346Z,99228.48
2019-01-26T00:40:27.947Z,99220.62
2019-01-26T00:42:56.552Z,99217.75
2019-01-26T00:45:25.174Z,99217.94
2019-01-26T00:47:53.795Z,99223.30
2019-01-26T00:50:22.376Z,99217.94
2019-01-26T00:52:51.022Z,99217.48
2019-01-26T00:55:19.637Z,99209.89
2019-01-26T00:57:48.241Z,99213.06
2019-01-26T01:00:17.184Z,99208.16
2019-01-26T01:02:46.118Z,99210.45
2019-01-26T01:05:14.716Z,99200.68
2019-01-26T01:07:43.405Z,99200.33
2019-01-26T01:10:12.624Z,99203.96
2019-01-26T01:12:41.300Z,99202.13
2019-01-26T01:15:10.917Z,99202.63
2019-01-26T01:17:39.532Z,99204.91
2019-01-26T01:20:08.695Z,99206.26
2019-01-26T01:22:37.339Z,99205.02
2019-01-26T01:25:05.933Z,99201.84
2019-01-26T01:27:34.546Z,99201.46
2019-01-26T01:30:03.342Z,99198.78
2019-01-26T01:32:31.943Z,99197.05
2019-01-26T01:35:00.546Z,99197.93
2019-01-26T01:37:29.447Z,99197.55
2019-01-26T01:39:58.326Z,99196.20
2019-01-26T01:42:26.945Z,99189.50
2019-01-26T01:44:55.542Z,99186.81
2019-01-26T01:47:24.210Z,99182.89
2019-01-26T01:49:52.797Z,99183.25
2019-01-26T01:52:21.391Z,99181.91
2019-01-26T01:54:49.973Z,99182.30
2019-01-26T01:57:18.932Z,99177.53
2019-01-26T01:59:47.621Z,99176.19
2019-01-26T02:02:16.246Z,99173.51
2019-01-26T02:04:44.825Z,99172.16
2019-01-26T02:07:13.433Z,99169.09
2019-01-26T02:09:42.053Z,99166.80
2019-01-26T02:12:10.666Z,99170.44
2019-01-26T02:14:39.274Z,99163.73
2019-01-26T02:17:07.903Z,99166.03
2019-01-26T02:19:36.003Z,99166.03
2019-01-26T02:22:04.576Z,99171.96
2019-01-26T02:24:33.164Z,99166.59
2019-01-26T02:27:01.786Z,99162.08
2019-01-26T02:29:30.423Z,99159.89
2019-01-26T02:31:59.022Z,99155.37
2019-01-26T02:34:27.797Z,99159.89
2019-01-26T02:36:55.643Z,99157.59
2019-01-26T02:39:24.253Z,99091.52
2019-01-26T02:41:52.895Z,99164.02
2019-01-26T02:44:21.508Z,99156.82
2019-01-26T02:46:50.116Z,99157.77
2019-01-26T02:49:18.855Z,99156.44
2019-01-26T02:51:46.644Z,99157.77
2019-01-26T02:54:15.248Z,99157.39
2019-01-26T02:56:43.412Z,99161.06
2019-01-26T02:59:11.952Z,99158.38
2019-01-26T03:01:40.536Z,99163.36
2019-01-26T03:04:09.147Z,99162.02
2019-01-26T03:06:37.746Z,99156.65
2019-01-26T03:09:08.524Z,99156.27
2019-01-26T03:11:37.153Z,99154.92
2019-01-26T03:14:05.769Z,99151.75
2019-01-26T03:16:34.390Z,99148.61
2019-01-26T03:19:03.004Z,99144.09
2019-01-26T03:21:31.568Z,99142.64
2019-01-26T03:24:00.173Z,99145.52
2019-01-26T03:26:28.756Z,99145.52
2019-01-26T03:28:57.416Z,99149.55
2019-01-26T03:31:25.998Z,99145.91
2019-01-26T03:33:54.847Z,99148.37
2019-01-26T03:36:23.443Z,99133.73
2019-01-26T03:38:52.070Z,99147.53
2019-01-26T03:41:20.679Z,99142.66
2019-01-26T03:43:49.299Z,99130.20
2019-01-26T03:46:17.911Z,99135.18
2019-01-26T03:48:46.886Z,99133.84
2019-01-26T03:51:15.494Z,99133.06
2019-01-26T03:53:44.104Z,99135.36
2019-01-26T03:56:12.694Z,99138.16
2019-01-26T03:58:41.279Z,99123.41
2019-01-26T04:01:10.135Z,99119.84
2019-01-26T04:03:38.737Z,99116.42
2019-01-26T04:06:07.364Z,99124.47
2019-01-26T04:08:36.007Z,99118.72
2019-01-26T04:11:04.582Z,99115.64
2019-01-26T04:13:33.183Z,99108.55
2019-01-26T04:16:01.885Z,99112.58
2019-01-26T04:18:30.563Z,99102.42
2019-01-26T04:20:59.117Z,99104.14
2019-01-26T04:23:27.727Z,99103.58
2019-01-26T04:25:56.323Z,99099.38
2019-01-26T04:28:24.936Z,99099.54
2019-01-26T04:30:53.805Z,99099.36
2019-01-26T04:33:23.117Z,99092.52
2019-01-26T04:35:51.741Z,99092.52
2019-01-26T04:38:20.795Z,99095.48
2019-01-26T04:40:49.440Z,99093.67
2019-01-26T04:43:18.065Z,99093.19
2019-01-26T04:45:46.717Z,99094.82
2019-01-26T04:48:15.356Z,99095.04
2019-01-26T04:50:44.364Z,99095.72
2019-01-26T04:53:12.952Z,99094.37
2019-01-26T04:55:41.559Z,99098.02
2019-01-26T04:58:10.208Z,99088.23
2019-01-26T05:00:38.940Z,99087.85
2019-01-26T05:03:07.955Z,99086.52
2019-01-26T05:05:36.474Z,99090.16
2019-01-26T05:08:05.110Z,99083.83
2019-01-26T05:10:33.708Z,99079.23
2019-01-26T05:13:02.593Z,99078.17
2019-01-26T05:15:31.221Z,99074.81
2019-01-26T05:17:59.834Z,99073.47
2019-01-26T05:20:28.469Z,99074.42
2019-01-26T05:22:57.137Z,99067.22
2019-01-26T05:25:25.579Z,99072.70
2019-01-26T05:27:54.105Z,99073.27
2019-01-26T05:30:29.815Z,99072.42
2019-01-26T05:32:58.409Z,99061.20
2019-01-26T05:35:27.008Z,99061.69
2019-01-26T05:37:55.607Z,99059.67
2019-01-26T05:40:24.225Z,99058.22
2019-01-26T05:42:52.815Z,99052.55
2019-01-26T05:45:22.160Z,99048.53
2019-01-26T05:47:50.741Z,99050.25
2019-01-26T05:50:21.181Z,99048.23
2019-01-26T05:52:49.805Z,99045.63
2019-01-26T05:55:18.137Z,99042.95
2019-01-26T05:57:46.660Z,99043.61
2019-01-26T06:00:19.554Z,99039.09
2019-01-26T06:02:48.129Z,99035.36
2019-01-26T06:05:16.816Z,99035.63
2019-01-26T06:07:44.643Z,99029.31
2019-01-26T06:10:13.244Z,99033.33
2019-01-26T06:12:41.920Z,99031.22
2019-01-26T06:15:10.432Z,99031.61
2019-01-26T06:17:39.042Z,99017.04
2019-01-26T06:20:07.717Z,99014.74
2019-01-26T06:22:36.242Z,99004.97
2019-01-26T06:25:05.442Z,98998.64
2019-01-26T06:27:34.025Z,98995.95
2019-01-26T06:30:02.645Z,98998.06
2019-01-26T06:32:30.478Z,98992.20
2019-01-26T06:34:58.981Z,98988.09
2019-01-26T06:37:27.603Z,98975.45
2019-01-26T06:39:56.330Z,98973.72
2019-01-26T06:42:24.207Z,98972.00
2019-01-26T06:44:55.968Z,98963.38
2019-01-26T06:47:24.687Z,98975.56
2019-01-26T06:49:53.370Z,98980.05
2019-01-26T06:52:21.885Z,98978.94
2019-01-26T06:54:50.483Z,98965.91
2019-01-26T06:57:18.310Z,98963.22
2019-01-26T06:59:47.778Z,98964.45
2019-01-26T07:02:16.539Z,98962.14
2019-01-26T07:04:52.531Z,98962.80
2019-01-26T07:07:21.214Z,98963.56
2019-01-26T07:09:49.334Z,98959.53
2019-01-26T07:12:17.884Z,98964.30
2019-01-26T07:14:46.095Z,98953.94
2019-01-26T07:17:14.683Z,98960.10
2019-01-26T07:19:43.397Z,98967.28
2019-01-26T07:22:11.258Z,98971.98
2019-01-26T07:24:39.854Z,98970.26
2019-01-26T07:27:08.721Z,98971.30
2019-01-26T07:29:37.303Z,98975.79
2019-01-26T07:32:06.419Z,98970.65
2019-01-26T07:34:35.017Z,98971.38
2019-01-26T07:37:03.653Z,98975.02
2019-01-26T07:39:32.292Z,98961.72
2019-01-26T07:42:00.122Z,98973.69
2019-01-26T07:44:28.668Z,98973.52
2019-01-26T07:46:57.262Z,98985.59
2019-01-26T07:49:25.854Z,98960.48
2019-01-26T07:51:54.420Z,98969.66
2019-01-26T07:54:23.031Z,98967.20
2019-01-26T07:56:51.932Z,98964.72
2019-01-26T07:59:20.631Z,98965.59
2019-01-26T08:01:49.243Z,98964.02
2019-01-26T08:04:17.859Z,98957.00
2019-01-26T08:06:46.482Z,98960.77
2019-01-26T08:09:15.470Z,98953.39
2019-01-26T08:11:44.086Z,98950.71
2019-01-26T08:14:12.944Z,98960.95
2019-01-26T08:16:41.706Z,98956.47
2019-01-26T08:19:09.891Z,98953.98
2019-01-26T08:21:38.431Z,98946.05
2019-01-26T08:24:07.147Z,98946.55
2019-01-26T08:26:34.984Z,98945.16
2019-01-26T08:29:03.518Z,98954.55
2019-01-26T08:31:32.114Z,98953.17
2019-01-26T08:34:00.868Z,98958.73
2019-01-26T08:36:28.701Z,98956.34
2019-01-26T08:38:57.319Z,98956.65
2019-01-26T08:41:25.928Z,98960.52
2019-01-26T08:43:54.554Z,98952.08
2019-01-26T08:46:23.504Z,98956.19
2019-01-26T08:48:52.203Z,98967.02
2019-01-26T08:51:21.186Z,98962.23
2019-01-26T08:53:50.181Z,98956.52
2019-01-26T08:56:18.830Z,98957.94
2019-01-26T08:58:47.476Z,98959.39
2019-01-26T09:01:16.079Z,98960.84
2019-01-26T09:03:59.297Z,98954.13
2019-01-26T09:06:34.280Z,98967.67
2019-01-26T09:09:03.566Z,98969.95
2019-01-26T09:11:32.166Z,98968.61
2019-01-26T09:14:00.777Z,98965.84
2019-01-26T09:16:29.479Z,98970.41
2019-01-26T09:18:57.498Z,98973.20
2019-01-26T09:21:26.046Z,98972.33
2019-01-26T09:23:54.709Z,98970.63
2019-01-26T09:26:23.656Z,98966.61
2019-01-26T09:28:52.278Z,98960.45
2019-01-26T09:31:21.201Z,98975.20
2019-01-26T09:33:49.788Z,98968.88
2019-01-26T09:36:18.482Z,98972.11
2019-01-26T09:38:46.333Z,98971.91
2019-01-26T09:41:14.852Z,98972.76
2019-01-26T09:43:43.425Z,98977.28
2019-01-26T09:46:12.086Z,98976.48
2019-01-26T09:48:46.197Z,98977.66
2019-01-26T09:51:11.951Z,98979.36
2019-01-26T09:53:40.594Z,98979.00
2019-01-26T09:56:09.765Z,98975.17
2019-01-26T09:58:38.531Z,98985.10
2019-01-26T10:01:06.472Z,98975.94
2019-01-26T10:03:35.343Z,98974.64
2019-01-26T10:06:04.899Z,98983.34
2019-01-26T10:08:33.892Z,98980.23
2019-01-26T10:11:02.670Z,98971.22
2019-01-26T10:13:32.530Z,98971.22
2019-01-26T10:16:01.122Z,98970.27
2019-01-26T10:18:30.092Z,98970.27
2019-01-26T10:20:58.950Z,98972.00
2019-01-26T10:23:26.937Z,98972.23
2019-01-26T10:25:55.461Z,98964.37
2019-01-26T10:28:24.037Z,98973.68
2019-01-26T10:30:55.569Z,98965.25
2019-01-26T10:33:24.267Z,98972.42
2019-01-26T10:36:17.266Z,98972.42
2019-01-26T10:38:51.873Z,98948.92
2019-01-26T10:41:45.765Z,98971.42
2019-01-26T10:44:19.776Z,98889.38
2019-01-26T10:46:48.519Z,98976.02
2019-01-26T10:49:17.179Z,98969.31
2019-01-26T10:51:45.790Z,98970.03
2019-01-26T10:54:14.478Z,98967.15
2019-01-26T10:56:43.171Z,98967.53
2019-01-26T10:59:14.070Z,98969.66
2019-01-26T11:01:42.768Z,98964.72
2019-01-26T11:04:11.431Z,98962.80
2019-01-26T11:06:40.155Z,98964.72
2019-01-26T11:09:10.740Z,98957.47
2019-01-26T11:11:39.708Z,98965.30
2019-01-26T11:14:08.391Z,98964.52
2019-01-26T11:16:37.268Z,98964.80
2019-01-26T11:19:08.003Z,98969.73
2019-01-26T11:21:36.458Z,98963.47
2019-01-26T11:24:04.497Z,98954.92
2019-01-26T11:26:35.337Z,98961.48
2019-01-26T11:29:04.256Z,98960.62
2019-01-26T11:31:34.016Z,98950.13
2019-01-26T11:34:02.721Z,98952.45
2019-01-26T11:36:31.374Z,98953.22
2019-01-26T11:39:00.143Z,98945.39
2019-01-26T11:41:28.049Z,98944.36
2019-01-26T11:43:56.848Z,98943.86
2019-01-26T11:46:38.336Z,98935.08
2019-01-26T11:49:06.961Z,98945.59
2019-01-26T11:51:39.113Z,98930.45
2019-01-26T11:54:08.267Z,98935.28
2019-01-26T11:57:01.764Z,98940.27
2019-01-26T11:59:31.969Z,98940.27
2019-01-26T12:02:08.800Z,98933.94
2019-01-26T12:04:51.575Z,98928.84
2019-01-26T12:07:23.094Z,98926.77
2019-01-26T12:09:51.697Z,98927.31
2019-01-26T12:12:23.292Z,98915.57
2019-01-26T12:14:52.044Z,98924.53
2019-01-26T12:17:19.865Z,98917.67
2019-01-26T12:19:48.550Z,98917.44
2019-01-26T12:22:17.600Z,98924.09
2019-01-26T12:24:46.250Z,98917.83
2019-01-26T12:27:14.843Z,98917.51
2019-01-26T12:29:43.939Z,98914.24
2019-01-26T12:32:12.794Z,98924.16
2019-01-26T12:34:40.619Z,98924.31
2019-01-26T12:37:09.719Z,98922.00
2019-01-26T12:39:38.308Z,98918.15
2019-01-26T12:42:07.127Z,98916.92
2019-01-26T12:44:36.550Z,98914.12
2019-01-26T12:47:05.570Z,98915.52
2019-01-26T12:49:34.484Z,98909.70
2019-01-26T12:52:03.574Z,98910.34
2019-01-26T12:54:32.265Z,98910.34
2019-01-26T12:57:01.010Z,98912.81
2019-01-26T12:59:29.082Z,98912.64
2019-01-26T13:01:57.891Z,98910.36
2019-01-26T13:04:26.798Z,98903.27
2019-01-26T13:06:55.799Z,98908.63
2019-01-26T13:09:24.462Z,98900.84
2019-01-26T13:11:52.293Z,98901.80
2019-01-26T13:14:20.892Z,98896.59
2019-01-26T13:16:48.741Z,98893.84
2019-01-26T13:19:17.663Z,98886.01
2019-01-26T13:21:46.257Z,98886.01
2019-01-26T13:24:14.885Z,98882.95
2019-01-26T13:26:44.011Z,98886.90
2019-01-26T13:29:12.788Z,98882.31
2019-01-26T13:31:40.727Z,98878.66
2019-01-26T13:34:09.318Z,98880.75
2019-01-26T13:36:37.994Z,98886.13
2019-01-26T13:39:09.401Z,98884.16
2019-01-26T13:41:38.441Z,98884.91
2019-01-26T13:44:09.351Z,98889.27
2019-01-26T13:46:38.244Z,98887.55
2019-01-26T13:49:07.331Z,98878.52
2019-01-26T13:51:36.008Z,98871.17
2019-01-26T13:54:04.664Z,98870.17
2019-01-26T13:59:22.540Z,98874.66
2019-01-26T14:01:52.569Z,98878.80
2019-01-26T14:04:21.177Z,98874.28
2019-01-26T14:06:49.787Z,98870.87
2019-01-26T14:09:17.665Z,98862.64
2019-01-26T14:11:46.279Z,98864.69
2019-01-26T14:14:15.268Z,98849.41
2019-01-26T14:16:44.572Z,98863.22
2019-01-26T14:19:14.081Z,98858.81
2019-01-26T14:21:42.715Z,98865.91
2019-01-26T14:24:17.530Z,98859.81
2019-01-26T14:26:49.768Z,98860.52
2019-01-26T14:29:18.872Z,98857.59
2019-01-26T14:31:47.478Z,98859.81
2019-01-26T14:34:16.452Z,98853.73
2019-01-26T14:36:45.087Z,98858.68
2019-01-26T14:39:14.111Z,98860.09
2019-01-26T14:41:43.232Z,98851.34
2019-01-26T14:44:11.875Z,98847.52
2019-01-26T14:46:40.461Z,98856.28
2019-01-26T14:49:09.365Z,98864.95
2019-01-26T14:51:38.076Z,98855.70
2019-01-26T14:54:07.485Z,98849.57
2019-01-26T14:56:36.120Z,98858.50
2019-01-26T14:59:04.777Z,98855.00
2019-01-26T15:01:33.399Z,98854.62
2019-01-26T15:04:02.016Z,98847.44
2019-01-26T15:06:30.598Z,98845.28
2019-01-26T15:08:59.275Z,98845.66
2019-01-26T15:11:27.105Z,98832.62
2019-01-26T15:13:55.767Z,98842.33
2019-01-26T15:16:23.597Z,98837.33
2019-01-26T15:18:52.152Z,98834.65
2019-01-26T15:21:20.780Z,98838.69
2019-01-26T15:23:49.367Z,98836.06
2019-01-26T15:26:18.282Z,98833.13
2019-01-26T15:28:47.269Z,98823.10
2019-01-26T15:31:15.904Z,98823.10
2019-01-26T15:33:44.502Z,98820.19
2019-01-26T15:36:13.411Z,98817.80
2019-01-26T15:38:42.027Z,98818.98
2019-01-26T15:41:10.655Z,98811.58
2019-01-26T15:43:39.327Z,98809.34
2019-01-26T15:46:08.218Z,98810.55
2019-01-26T15:48:37.213Z,98810.69
2019-01-26T15:51:05.962Z,98814.27
2019-01-26T15:53:35.767Z,98810.77
2019-01-26T15:56:04.385Z,98810.77
2019-01-26T15:58:33.113Z,98812.79
2019-01-26T16:01:00.959Z,98815.64
2019-01-26T16:03:29.481Z,98816.52
2019-01-26T16:05:58.389Z,98812.49
2019-01-26T16:08:27.270Z,98807.50
2019-01-26T16:10:56.202Z,98801.53
2019-01-26T16:13:24.935Z,98806.69
2019-01-26T16:15:52.766Z,98796.78
2019-01-26T16:18:21.659Z,98801.22
2019-01-26T16:20:50.257Z,98796.44
2019-01-26T16:23:18.908Z,98795.55
2019-01-26T16:25:47.579Z,98795.78
2019-01-26T16:28:16.202Z,98787.94
2019-01-26T16:30:45.266Z,98783.16
2019-01-26T16:33:14.048Z,98789.50
2019-01-26T16:35:41.880Z,98788.81
2019-01-26T16:38:10.752Z,98783.00
2019-01-26T16:40:39.424Z,98777.00
2019-01-26T16:43:08.400Z,98777.00
2019-01-26T16:45:39.080Z,98774.05
2019-01-26T16:48:10.281Z,98771.75
2019-01-26T16:50:39.163Z,98766.97
2019-01-26T16:53:07.000Z,98763.41
2019-01-26T16:55:35.523Z,98764.34
2019-01-26T16:58:04.630Z,98755.02
2019-01-26T17:00:38.461Z,98759.83
2019-01-26T17:03:07.929Z,98754.31
2019-01-26T17:05:36.546Z,98744.86
2019-01-26T17:08:05.620Z,98748.63
2019-01-26T17:10:34.614Z,98751.50
2019-01-26T17:13:03.279Z,98745.03
2019-01-26T17:15:31.906Z,98740.63
2019-01-26T17:18:00.984Z,98739.49
2019-01-26T17:20:34.905Z,98732.79
2019-01-26T17:23:03.658Z,98735.09
2019-01-26T17:25:32.658Z,98732.98
2019-01-26T17:28:01.275Z,98725.82
2019-01-26T17:30:32.780Z,98723.02
2019-01-26T17:33:07.351Z,98715.94
2019-01-26T17:35:32.443Z,98701.58
2019-01-26T17:38:05.902Z,98697.17
2019-01-26T17:40:34.610Z,98703.09
2019-01-26T17:43:03.493Z,98693.01
2019-01-26T17:45:36.067Z,98684.84
2019-01-26T17:48:05.054Z,98690.33
2019-01-26T17:50:33.656Z,98674.33
2019-01-26T17:53:02.578Z,98683.30
2019-01-26T17:55:31.175Z,98675.97
2019-01-26T17:58:00.102Z,98674.85
2019-01-26T18:00:44.870Z,98674.28
2019-01-26T18:03:13.551Z,98664.19
2019-01-26T18:05:42.170Z,98665.08
2019-01-26T18:08:10.790Z,98660.09
2019-01-26T18:10:40.771Z,98660.33
2019-01-26T18:13:09.469Z,98651.73
2019-01-26T18:15:38.460Z,98647.54
2019-01-26T18:18:07.218Z,98636.59
2019-01-26T18:20:35.990Z,98638.19
2019-01-26T18:23:04.048Z,98629.45
2019-01-26T18:25:35.469Z,98627.02
2019-01-26T18:28:04.235Z,98625.71
2019-01-26T18:30:32.091Z,98620.25
2019-01-26T18:33:01.019Z,98614.93
2019-01-26T18:35:29.767Z,98619.33
2019-01-26T18:37:58.499Z,98614.45
2019-01-26T18:40:26.387Z,98608.36
2019-01-26T18:42:55.102Z,98611.80
2019-01-26T18:45:24.027Z,98604.58
2019-01-26T18:47:53.049Z,98605.65
2019-01-26T18:50:24.053Z,98600.30
2019-01-26T18:52:53.069Z,98597.86
2019-01-26T18:55:21.836Z,98601.80
2019-01-26T18:57:49.744Z,98594.58
2019-01-26T19:00:26.955Z,98587.51
2019-01-26T19:02:59.423Z,98579.82
2019-01-26T19:05:28.995Z,98579.95
2019-01-26T19:07:57.629Z,98572.48
2019-01-26T19:10:28.678Z,98566.00
2019-01-26T19:12:57.356Z,98561.22
2019-01-26T19:15:25.412Z,98562.11
2019-01-26T19:17:54.292Z,98556.23
2019-01-26T19:20:23.590Z,98547.67
2019-01-26T19:22:52.479Z,98543.01
2019-01-26T19:25:21.263Z,98546.92
2019-01-26T19:27:49.206Z,98532.97
2019-01-26T19:30:19.542Z,98519.40
2019-01-26T19:32:48.411Z,98519.40
2019-01-26T19:35:16.770Z,98526.48
2019-01-26T19:37:46.085Z,98523.89
2019-01-26T19:40:19.423Z,98524.02
2019-01-26T19:42:48.483Z,98521.31
2019-01-26T19:45:19.665Z,98515.45
2019-01-26T19:47:48.434Z,98517.02
2019-01-26T19:50:17.321Z,98515.55
2019-01-26T19:52:46.344Z,98502.61
2019-01-26T19:55:16.073Z,98502.61
2019-01-26T19:57:44.871Z,98500.14
2019-01-26T20:00:12.939Z,98496.34
2019-01-26T20:02:41.822Z,98500.61
2019-01-26T20:05:12.577Z,98490.06
2019-01-26T20:07:41.253Z,98483.61
2019-01-26T20:10:10.222Z,98481.52
2019-01-26T20:12:38.956Z,98477.24
2019-01-26T20:15:11.107Z,98478.30
2019-01-26T20:17:40.102Z,98471.72
2019-01-26T20:20:11.465Z,98469.76
2019-01-26T20:22:40.086Z,98463.64
2019-01-26T20:25:08.821Z,98452.20
2019-01-26T20:27:36.842Z,98452.79
2019-01-26T20:30:07.412Z,98453.29
2019-01-26T20:32:36.816Z,98443.58
2019-01-26T20:35:05.971Z,98443.58
2019-01-26T20:37:35.010Z,98442.94
2019-01-26T20:40:05.454Z,98382.18
2019-01-26T20:42:34.613Z,98433.05
2019-01-26T20:45:03.921Z,98426.58
2019-01-26T20:47:32.543Z,98427.45
2019-01-26T20:50:01.283Z,98424.89
2019-01-26T20:52:29.124Z,98417.21
2019-01-26T20:54:58.262Z,98412.21
2019-01-26T20:57:27.062Z,98410.88
2019-01-26T20:59:54.970Z,98400.13
2019-01-26T21:02:23.580Z,98394.39
2019-01-26T21:04:52.313Z,98395.36
2019-01-26T21:07:21.006Z,98388.66
2019-01-26T21:09:49.708Z,98378.89
2019-01-26T21:12:17.652Z,98376.70
2019-01-26T21:14:46.523Z,98375.36
2019-01-26T21:17:15.311Z,98362.08
2019-01-26T21:19:43.243Z,98363.75
2019-01-26T21:22:12.267Z,98362.41
2019-01-26T21:24:41.434Z,98350.00
2019-01-26T21:27:10.380Z,98352.30
2019-01-26T21:29:39.114Z,98357.17
2019-01-26T21:32:07.057Z,98352.68
2019-01-26T21:34:36.183Z,98344.97
2019-01-26T21:37:06.129Z,98339.50
2019-01-26T21:39:35.555Z,98329.98
2019-01-26T21:42:04.736Z,98333.64
2019-01-26T21:44:33.505Z,98326.34
2019-01-26T21:47:01.709Z,98323.99
2019-01-26T21:49:30.430Z,98327.89
2019-01-26T21:51:58.353Z,98321.09
2019-01-26T21:54:27.688Z,98315.35
2019-01-26T21:56:56.545Z,98309.81
2019-01-26T21:59:24.429Z,98302.36
2019-01-26T22:01:53.129Z,98302.59
2019-01-26T22:04:21.491Z,98304.66
2019-01-26T22:06:50.339Z,98297.33
2019-01-26T22:09:19.911Z,98296.48
2019-01-26T22:11:48.808Z,98289.38
2019-01-26T22:14:17.790Z,98289.00
2019-01-26T22:16:47.103Z,98285.05
2019-01-26T22:19:21.780Z,98282.73
2019-01-26T22:21:46.441Z,98273.08
2019-01-26T22:24:14.394Z,98276.47
2019-01-26T22:26:43.224Z,98261.48
2019-01-26T22:29:11.966Z,98270.42
2019-01-26T22:31:40.685Z,98259.98
2019-01-26T22:34:08.595Z,98256.41
2019-01-26T22:36:37.222Z,98253.46
2019-01-26T22:39:07.483Z,98248.92
2019-01-26T22:41:36.538Z,98243.39
2019-01-26T22:44:05.700Z,98244.86
2019-01-26T22:46:34.430Z,98237.12
2019-01-26T22:49:03.091Z,98231.50
2019-01-26T22:51:31.197Z,98226.13
2019-01-26T22:53:59.971Z,98227.00
2019-01-26T22:56:28.775Z,98219.77
2019-01-26T22:58:57.546Z,98214.76
2019-01-26T23:01:32.284Z,98210.00
2019-01-26T23:04:48.503Z,98214.14
2019-01-26T23:07:35.446Z,98199.61
2019-01-26T23:10:28.932Z,98195.07
2019-01-26T23:13:18.602Z,98196.19
2019-01-26T23:16:31.822Z,98193.62
2019-01-26T23:19:10.427Z,98184.57
2019-01-26T23:21:47.822Z,98178.72
2019-01-26T23:24:39.476Z,98179.70
2019-01-26T23:27:32.462Z,98169.31
2019-01-26T23:30:26.380Z,98165.05
2019-01-26T23:32:58.042Z,98155.78
2019-01-26T23:35:26.753Z,98149.48
2019-01-26T23:37:54.647Z,98143.74
2019-01-26T23:40:23.354Z,98127.14
2019-01-26T23:42:52.563Z,98130.30
2019-01-26T23:45:21.524Z,98122.09
2019-01-26T23:47:50.292Z,98118.94
2019-01-26T23:50:18.923Z,98111.02
2019-01-26T23:52:46.871Z,98093.44
2019-01-26T23:55:15.617Z,98096.63
2019-01-26T23:57:44.410Z,98093.94
